Map

Track Data

SID SEASON NUMBER BASIN SUBBASIN NAME ISO_TIME NATURE LAT LON WMO_WIND WMO_PRES WMO_AGENCY TRACK_TYPE DIST2LAND LANDFALL IFLAG USA_AGENCY USA_ATCF_ID USA_LAT USA_LON USA_RECORD USA_STATUS USA_WIND USA_PRES USA_SSHS USA_R34_NE USA_R34_SE USA_R34_SW USA_R34_NW USA_R50_NE USA_R50_SE USA_R50_SW USA_R50_NW USA_R64_NE USA_R64_SE USA_R64_SW USA_R64_NW USA_POCI USA_ROCI USA_RMW USA_EYE TOKYO_LAT TOKYO_LON TOKYO_GRADE TOKYO_WIND TOKYO_PRES TOKYO_R50_DIR TOKYO_R50_LONG TOKYO_R50_SHORT TOKYO_R30_DIR TOKYO_R30_LONG TOKYO_R30_SHORT TOKYO_LAND CMA_LAT CMA_LON CMA_CAT CMA_WIND CMA_PRES HKO_LAT HKO_LON HKO_CAT HKO_WIND HKO_PRES NEWDELHI_LAT NEWDELHI_LON NEWDELHI_GRADE NEWDELHI_WIND NEWDELHI_PRES NEWDELHI_CI NEWDELHI_DP NEWDELHI_POCI REUNION_LAT REUNION_LON REUNION_TYPE REUNION_WIND REUNION_PRES REUNION_TNUM REUNION_CI REUNION_RMW REUNION_R34_NE REUNION_R34_SE REUNION_R34_SW REUNION_R34_NW REUNION_R50_NE REUNION_R50_SE REUNION_R50_SW REUNION_R50_NW REUNION_R64_NE REUNION_R64_SE REUNION_R64_SW REUNION_R64_NW BOM_LAT BOM_LON BOM_TYPE BOM_WIND BOM_PRES BOM_TNUM BOM_CI BOM_RMW BOM_R34_NE BOM_R34_SE BOM_R34_SW BOM_R34_NW BOM_R50_NE BOM_R50_SE BOM_R50_SW BOM_R50_NW BOM_R64_NE BOM_R64_SE BOM_R64_SW BOM_R64_NW BOM_ROCI BOM_POCI BOM_EYE BOM_POS_METHOD BOM_PRES_METHOD NADI_LAT NADI_LON NADI_CAT NADI_WIND NADI_PRES WELLINGTON_LAT WELLINGTON_LON WELLINGTON_WIND WELLINGTON_PRES DS824_LAT DS824_LON DS824_STAGE DS824_WIND DS824_PRES TD9636_LAT TD9636_LON TD9636_STAGE TD9636_WIND TD9636_PRES TD9635_LAT TD9635_LON TD9635_WIND TD9635_PRES TD9635_ROCI NEUMANN_LAT NEUMANN_LON NEUMANN_CLASS NEUMANN_WIND NEUMANN_PRES MLC_LAT MLC_LON MLC_CLASS MLC_WIND MLC_PRES USA_GUST BOM_GUST BOM_GUST_PER REUNION_GUST REUNION_GUST_PER USA_SEAHGT USA_SEARAD_NE USA_SEARAD_SE USA_SEARAD_SW USA_SEARAD_NW STORM_SPEED STORM_DIR
1939308N10133 1939 76 WP MM NOT_NAMED 1939-11-04 10:00:00 NR 9.90000 132.600 main 702 672 __________O___ -1 9.90000 132.600 7 9 288
1939308N10133 1939 76 WP MM NOT_NAMED 1939-11-04 12:00:00 NR 9.99083 132.311 main 672 621 __________P___ -1 9.99083 132.311 7 9 287
1939308N10133 1939 76 WP MM NOT_NAMED 1939-11-04 15:00:00 NR 10.1367 131.836 main 621 572 __________P___ -1 10.1367 131.836 7 11 287
1939308N10133 1939 76 WP MM NOT_NAMED 1939-11-04 18:00:00 NR 10.3076 131.254 main 572 493 __________P___ -1 10.3076 131.254 7 14 286
1939308N10133 1939 76 WP MM NOT_NAMED 1939-11-04 21:00:00 NR 10.5184 130.500 main 493 476 __________P___ -1 10.5184 130.500 7 16 286
1939308N10133 1939 76 WP MM NOT_NAMED 1939-11-04 22:00:00 NR 10.6000 130.200 main 465 403 __________O___ -1 10.6000 130.200 7 20 285
1939308N10133 1939 76 WP MM NOT_NAMED 1939-11-05 00:00:00 NR 10.7830 129.520 main 403 284 __________P___ -1 10.7830 129.520 7 23 286
1939308N10133 1939 76 WP MM NOT_NAMED 1939-11-05 03:00:00 NR 11.1127 128.359 main 284 152 __________P___ -1 11.1127 128.359 7 25 287
1939308N10133 1939 76 WP MM NOT_NAMED 1939-11-05 06:00:00 NR 11.5185 127.133 main 152 58 __________P___ -1 11.5185 127.133 7 25 291
1939308N10133 1939 76 WP MM NOT_NAMED 1939-11-05 09:00:00 NR 12.0130 125.960 main 58 21 __________P___ -1 12.0130 125.960 7 25 294
1939308N10133 1939 76 WP MM NOT_NAMED 1939-11-05 10:00:00 NR 12.2000 125.600 main 10 0 __________O___ -1 12.2000 125.600 7 25 303
1939308N10133 1939 76 WP MM NOT_NAMED 1939-11-05 12:00:00 NR 12.6767 124.896 main 22 22 __________P___ -1 12.6767 124.896 7 25 308
1939308N10133 1939 76 WP MM NOT_NAMED 1939-11-05 15:00:00 NR 13.4761 123.930 main 22 0 __________P___ -1 13.4761 123.930 7 23 313
1939308N10133 1939 76 WP MM NOT_NAMED 1939-11-05 18:00:00 NR 14.2677 123.141 main 24 24 __________P___ -1 14.2677 123.141 7 19 319
1939308N10133 1939 76 WP MM NOT_NAMED 1939-11-05 21:00:00 NR 14.9294 122.607 main 78 89 __________P___ -1 14.9294 122.607 7 16 323
1939308N10133 1939 76 WP MM NOT_NAMED 1939-11-05 22:00:00 NR 15.1000 122.500 main 96 89 __________O___ -1 15.1000 122.500 4 8 333
1939308N10133 1939 76 WP MM NOT_NAMED 1939-11-06 00:00:00 NR 15.3024 122.414 main 89 79 __________P___ -1 15.3024 122.414 4 4 5
1939308N10133 1939 76 WP MM NOT_NAMED 1939-11-06 03:00:00 NR 15.4437 122.540 main 85 85 __________P___ -1 15.4437 122.540 4 5 71
1939308N10133 1939 76 WP MM NOT_NAMED 1939-11-06 06:00:00 NR 15.4561 122.865 main 108 108 __________P___ -1 15.4561 122.865 4 7 92
1939308N10133 1939 76 WP MM NOT_NAMED 1939-11-06 09:00:00 NR 15.4136 123.269 main 141 141 __________P___ -1 15.4136 123.269 4 8 96
1939308N10133 1939 76 WP MM NOT_NAMED 1939-11-06 10:00:00 NR 15.4000 123.400 main 144 144 __________O___ -1 15.4000 123.400 4 7 94
1939308N10133 1939 76 WP MM NOT_NAMED 1939-11-06 12:00:00 NR 15.3863 123.638 main 153 158 __________P___ -1 15.3863 123.638 4 6 90
1939308N10133 1939 76 WP MM NOT_NAMED 1939-11-06 15:00:00 NR 15.3957 123.941 main 158 156 __________P___ -1 15.3957 123.941 4 5 85
1939308N10133 1939 76 WP MM NOT_NAMED 1939-11-06 18:00:00 NR 15.4313 124.197 main 156 156 __________P___ -1 15.4313 124.197 4 5 80
1939308N10133 1939 76 WP MM NOT_NAMED 1939-11-06 21:00:00 NR 15.4818 124.426 main 168 168 __________P___ -1 15.4818 124.426 4 5 77
1939308N10133 1939 76 WP MM NOT_NAMED 1939-11-06 22:00:00 NR 15.5000 124.500 main 169 __________O___ -1 15.5000 124.500 4 4 75

Digital Typhoon Data and Search

About IBTrACS Database

This database is a web-friendly format of International Best Track Archive for Climate Stewardship (IBTrACS), a global best track data archive curated by NOAA dating back to 1842.

Updated: 2021-10-08